Hannibal, MO (63401)

3:44 PM CST on February 10, 2016 (GMT -0600)
Crosscreek Subdivision | | Change Station
CLOSE
Current Station
Personal Weather Station
Location: New London, MO
Elevation: 656 ft
Nearby Weather Stations

Elev 656 ft 39.66 °N, 91.43 °W | Updated 5 seconds ago

Snow
Snow
20.3 °F
Feels Like 20 °F
N
0.2
Wind Variable Wind from SE
Gusts 2.5 mph

Today
High -- | Low -- °F
--% Chance of Precip.
Yesterday
High -- | Low -- °F
Precip. -- in
Pressure 30.10 in
Visibility 5.0 miles
Clouds Overcast 1200 ft
Windchill 20 °F
Dew Point 12 °F
Humidity 68%
Rainfall 0.00 in
Snow Depth Not available.
7:04 AM 5:35 PM
Waxing Crescent, 7% visible
METAR KHAE 102135Z AUTO 20003KT 5SM -SN OVC012 M05/M08 A3010 RMK AO2
Pressure 30.10 in
Visibility 5.0 miles
Clouds Overcast 1200 ft
Windchill 20 °F
Dew Point 12 °F
Humidity 68%
Rainfall 0.00 in
Snow Depth Not available.
7:04 AM 5:35 PM
Waxing Crescent, 7% visible
METAR KHAE 102135Z AUTO 20003KT 5SM -SN OVC012 M05/M08 A3010 RMK AO2

10-Day Weather Forecast

Almanac

Astronomy

Feb. 10, 2016 Rise Set
Actual Time
Civil Twilight
Nautical Twilight
Astronomical Twilight
Moon
Length of Visible Light
Length of Day
Tomorrow will be .
, % of the Moon is Illuminated

Today's Extremes

State Highs State Lows

Community

WunderPhotos

Upload Photos

1,891,951 photos uploaded!

WunderBlog® & News

Nearby

Air Quality

  Air Quality AQ Index Pollutant
Not available.

Snow Depth

Station Depth Elevation

Earthquake Activity

City Distance Mag. Time & Date
Minimum magnitude displayed is 2.5.

Coastal Water Temperatures

Place Temperature

Stations

Nearby Weather Stations

Station Location Temp. Windchill Dew Point Humidity Wind Precip. Elev Updated Type
                   

Watches & Warnings

There are currently no watches in effect.